createdAt,value
2023-03-22T00:00:21.508Z,11.16
2023-03-22T00:01:21.459Z,11.17
2023-03-22T00:02:21.508Z,11.16
2023-03-22T00:03:21.470Z,11.19
2023-03-22T00:04:21.438Z,11.17
2023-03-22T00:05:21.445Z,11.20
2023-03-22T00:06:21.406Z,11.19
2023-03-22T00:07:21.418Z,11.17
2023-03-22T00:08:21.474Z,11.17
2023-03-22T00:09:21.395Z,11.19
2023-03-22T00:10:21.403Z,11.17
2023-03-22T00:11:21.367Z,11.19
2023-03-22T00:12:21.325Z,11.19
2023-03-22T00:13:21.315Z,11.20
2023-03-22T00:14:21.307Z,11.19
2023-03-22T00:15:21.304Z,11.17
2023-03-22T00:16:21.352Z,11.19
2023-03-22T00:17:21.264Z,11.20
2023-03-22T00:18:21.278Z,11.16
2023-03-22T00:19:21.283Z,11.19
2023-03-22T00:20:21.289Z,11.19
2023-03-22T00:21:21.215Z,11.19
2023-03-22T00:22:21.212Z,11.17
2023-03-22T00:23:21.248Z,11.19
2023-03-22T00:24:21.209Z,11.17
2023-03-22T00:25:21.181Z,11.16
2023-03-22T00:26:21.178Z,11.13
2023-03-22T00:27:21.151Z,11.13
2023-03-22T00:28:21.122Z,11.12
2023-03-22T00:29:21.111Z,11.12
2023-03-22T00:30:21.100Z,11.12
2023-03-22T00:31:21.212Z,11.12
2023-03-22T00:32:21.072Z,11.09
2023-03-22T00:33:21.080Z,11.09
2023-03-22T00:34:21.075Z,11.11
2023-03-22T00:35:21.091Z,11.11
2023-03-22T00:36:21.060Z,11.11
2023-03-22T00:37:20.992Z,11.09
2023-03-22T00:38:27.196Z,11.09
2023-03-22T00:39:21.974Z,11.09
2023-03-22T00:40:20.987Z,11.11
2023-03-22T00:41:20.959Z,11.09
2023-03-22T00:42:20.952Z,11.09
2023-03-22T00:43:20.942Z,11.08
2023-03-22T00:44:20.947Z,11.11
2023-03-22T00:45:20.928Z,11.08
2023-03-22T00:46:21.041Z,11.08
2023-03-22T00:47:20.874Z,11.06
2023-03-22T00:48:20.922Z,11.05
2023-03-22T00:49:20.879Z,11.05
2023-03-22T00:50:20.843Z,11.06
2023-03-22T00:51:20.850Z,11.06
2023-03-22T00:52:20.838Z,11.05
2023-03-22T00:53:20.831Z,11.05
2023-03-22T00:54:20.813Z,11.06
2023-03-22T00:55:20.799Z,11.05
2023-03-22T00:56:20.786Z,11.05
2023-03-22T00:57:20.734Z,11.03
2023-03-22T00:58:20.767Z,11.03
2023-03-22T00:59:20.712Z,11.03
2023-03-22T01:00:20.735Z,11.05
2023-03-22T01:01:20.766Z,11.03
2023-03-22T01:02:20.693Z,11.03
2023-03-22T01:03:20.667Z,11.02
2023-03-22T01:04:20.660Z,10.99
2023-03-22T01:05:20.629Z,10.98
2023-03-22T01:06:20.685Z,10.99
2023-03-22T01:07:20.630Z,10.95
2023-03-22T01:08:20.599Z,10.93
2023-03-22T01:09:20.585Z,10.91
2023-03-22T01:10:20.582Z,10.87
2023-03-22T01:11:20.558Z,10.86
2023-03-22T01:12:20.573Z,10.83
2023-03-22T01:13:20.555Z,10.81
2023-03-22T01:14:20.551Z,10.81
2023-03-22T01:15:20.523Z,10.78
2023-03-22T01:16:20.556Z,10.78
2023-03-22T01:17:20.579Z,10.75
2023-03-22T01:18:20.488Z,10.75
2023-03-22T01:19:20.444Z,10.73
2023-03-22T01:20:20.472Z,10.72
2023-03-22T01:21:20.425Z,10.70
2023-03-22T01:22:20.453Z,10.69
2023-03-22T01:23:20.452Z,10.69
2023-03-22T01:24:20.385Z,10.68
2023-03-22T01:25:20.390Z,10.68
2023-03-22T01:26:20.391Z,10.66
2023-03-22T01:27:20.337Z,10.66
2023-03-22T01:28:20.391Z,10.65
2023-03-22T01:29:20.347Z,10.65
2023-03-22T01:30:20.326Z,10.65
2023-03-22T01:31:20.410Z,10.63
2023-03-22T01:32:20.299Z,10.65
2023-03-22T01:33:20.287Z,10.63
2023-03-22T01:34:20.251Z,10.65
2023-03-22T01:35:20.300Z,10.65
2023-03-22T01:36:20.234Z,10.66
2023-03-22T01:37:20.229Z,10.68
2023-03-22T01:38:20.270Z,10.68
2023-03-22T01:39:20.193Z,10.68
2023-03-22T01:40:20.202Z,10.69
2023-03-22T01:41:20.218Z,10.68
2023-03-22T01:42:20.194Z,10.69
2023-03-22T01:43:20.223Z,10.70
2023-03-22T01:44:20.216Z,10.66
2023-03-22T01:45:20.109Z,10.68
2023-03-22T01:46:20.195Z,10.63
2023-03-22T01:47:20.104Z,10.63
2023-03-22T01:48:20.207Z,10.60
2023-03-22T01:49:20.114Z,10.60
2023-03-22T01:50:20.041Z,10.58
2023-03-22T01:51:20.046Z,10.55
2023-03-22T01:52:20.020Z,10.55
2023-03-22T01:53:20.039Z,10.55
2023-03-22T01:54:19.983Z,10.52
2023-03-22T01:55:20.026Z,10.52
2023-03-22T01:56:19.993Z,10.52
2023-03-22T01:57:19.999Z,10.51
2023-03-22T01:58:19.960Z,10.52
2023-03-22T01:59:19.975Z,10.51
2023-03-22T02:00:19.950Z,10.49
2023-03-22T02:01:19.999Z,10.49
2023-03-22T02:02:19.958Z,10.49
2023-03-22T02:03:19.896Z,10.49
2023-03-22T02:04:19.883Z,10.49
2023-03-22T02:05:19.879Z,10.47
2023-03-22T02:06:19.890Z,10.49
2023-03-22T02:07:19.858Z,10.47
2023-03-22T02:08:19.806Z,10.49
2023-03-22T02:09:19.857Z,10.47
2023-03-22T02:10:19.808Z,10.49
2023-03-22T02:11:19.799Z,10.49
2023-03-22T02:12:19.757Z,10.49
2023-03-22T02:13:19.764Z,10.47
2023-03-22T02:14:19.751Z,10.47
2023-03-22T02:15:19.745Z,10.46
2023-03-22T02:16:19.755Z,10.46
2023-03-22T02:17:19.706Z,10.46
2023-03-22T02:18:19.670Z,10.44
2023-03-22T02:19:19.670Z,10.43
2023-03-22T02:20:19.687Z,10.43
2023-03-22T02:21:19.677Z,10.42
2023-03-22T02:22:19.617Z,10.42
2023-03-22T02:23:19.619Z,10.39
2023-03-22T02:24:19.617Z,10.39
2023-03-22T02:25:19.597Z,10.36
2023-03-22T02:26:19.628Z,10.35
2023-03-22T02:27:19.603Z,10.34
2023-03-22T02:28:19.565Z,10.32
2023-03-22T02:29:19.567Z,10.31
2023-03-22T02:30:19.535Z,10.31
2023-03-22T02:31:19.605Z,10.29
2023-03-22T02:32:19.521Z,10.29
2023-03-22T02:33:19.501Z,10.29
2023-03-22T02:34:19.457Z,10.28
2023-03-22T02:35:19.483Z,10.28
2023-03-22T02:36:19.458Z,10.25
2023-03-22T02:37:19.457Z,10.24
2023-03-22T02:38:19.416Z,10.26
2023-03-22T02:39:19.419Z,10.24
2023-03-22T02:40:19.418Z,10.24
2023-03-22T02:41:19.412Z,10.25
2023-03-22T02:42:19.355Z,10.22
2023-03-22T02:43:19.376Z,10.22
2023-03-22T02:44:19.352Z,10.20
2023-03-22T02:45:19.352Z,10.18
2023-03-22T02:46:19.388Z,10.20
2023-03-22T02:47:19.295Z,10.17
2023-03-22T02:48:19.357Z,10.16
2023-03-22T02:49:19.273Z,10.14
2023-03-22T02:50:19.254Z,10.16
2023-03-22T02:51:19.256Z,10.14
2023-03-22T02:52:19.261Z,10.13
2023-03-22T02:53:19.258Z,10.13
2023-03-22T02:54:19.197Z,10.10
2023-03-22T02:55:19.221Z,10.10
2023-03-22T02:56:19.212Z,10.09
2023-03-22T02:57:19.210Z,10.10
2023-03-22T02:58:19.210Z,10.09
2023-03-22T02:59:19.151Z,10.07
2023-03-22T03:00:19.138Z,10.07
2023-03-22T03:01:19.131Z,10.07
2023-03-22T03:02:19.163Z,10.06
2023-03-22T03:03:19.133Z,10.04
2023-03-22T03:04:19.078Z,10.04
2023-03-22T03:05:19.060Z,10.04
2023-03-22T03:06:19.040Z,10.04
2023-03-22T03:07:19.044Z,10.02
2023-03-22T03:08:19.046Z,10.02
2023-03-22T03:09:19.010Z,10.01
2023-03-22T03:10:19.007Z,9.98
2023-03-22T03:11:19.007Z,9.96
2023-03-22T03:12:18.958Z,9.95
2023-03-22T03:13:18.972Z,9.98
2023-03-22T03:14:18.931Z,9.95
2023-03-22T03:15:18.975Z,9.93
2023-03-22T03:16:18.958Z,9.93
2023-03-22T03:17:18.936Z,9.93
2023-03-22T03:18:18.935Z,9.93
2023-03-22T03:19:18.929Z,9.95
2023-03-22T03:20:18.896Z,9.95
2023-03-22T03:21:18.850Z,9.95
2023-03-22T03:22:18.913Z,9.93
2023-03-22T03:23:18.864Z,9.95
2023-03-22T03:24:18.854Z,9.95
2023-03-22T03:25:18.831Z,9.96
2023-03-22T03:26:18.796Z,9.96
2023-03-22T03:27:18.802Z,9.96
2023-03-22T03:28:18.793Z,9.98
2023-03-22T03:29:18.808Z,9.98
2023-03-22T03:30:18.728Z,9.99
2023-03-22T03:31:18.741Z,9.99
2023-03-22T03:32:18.708Z,9.99
2023-03-22T03:33:18.700Z,9.99
2023-03-22T03:34:18.709Z,10.01
2023-03-22T03:35:18.719Z,9.99
2023-03-22T03:36:18.649Z,9.96
2023-03-22T03:37:18.653Z,9.98
2023-03-22T03:38:18.667Z,9.96
2023-03-22T03:39:18.748Z,9.98
2023-03-22T03:40:18.661Z,9.96
2023-03-22T03:41:18.598Z,9.98
2023-03-22T03:42:18.567Z,9.96
2023-03-22T03:43:18.612Z,9.98
2023-03-22T03:44:18.556Z,9.96
2023-03-22T03:45:18.567Z,9.95
2023-03-22T03:46:18.522Z,9.95
2023-03-22T03:47:18.521Z,9.93
2023-03-22T03:48:18.561Z,9.95
2023-03-22T03:49:18.498Z,9.95
2023-03-22T03:50:18.500Z,9.95
2023-03-22T03:51:18.490Z,9.95
2023-03-22T03:52:18.455Z,9.95
2023-03-22T03:53:18.447Z,9.96
2023-03-22T03:54:18.407Z,9.95
2023-03-22T03:55:18.445Z,9.95
2023-03-22T03:56:18.415Z,9.96
2023-03-22T03:57:18.394Z,9.98
2023-03-22T03:58:18.389Z,9.98
2023-03-22T03:59:18.370Z,10.01
2023-03-22T04:00:18.357Z,10.01
2023-03-22T04:01:18.326Z,10.01
2023-03-22T04:02:18.342Z,10.01
2023-03-22T04:03:18.322Z,9.99
2023-03-22T04:04:18.360Z,9.99
2023-03-22T04:05:18.321Z,9.99
2023-03-22T04:06:18.274Z,10.01
2023-03-22T04:07:18.248Z,9.99
2023-03-22T04:08:18.238Z,9.98
2023-03-22T04:09:18.229Z,9.98
2023-03-22T04:10:18.221Z,9.98
2023-03-22T04:11:18.212Z,9.96
2023-03-22T04:12:18.219Z,9.96
2023-03-22T04:13:18.176Z,9.96
2023-03-22T04:14:18.182Z,9.96
2023-03-22T04:15:18.172Z,9.95
2023-03-22T04:16:18.201Z,9.93
2023-03-22T04:17:18.154Z,9.92
2023-03-22T04:18:18.121Z,9.91
2023-03-22T04:19:18.112Z,9.91
2023-03-22T04:20:18.146Z,9.91
2023-03-22T04:21:18.131Z,9.89
2023-03-22T04:22:18.070Z,9.88
2023-03-22T04:23:18.053Z,9.86
2023-03-22T04:24:18.043Z,9.86
2023-03-22T04:25:18.166Z,9.86
2023-03-22T04:26:18.033Z,9.85
2023-03-22T04:27:18.058Z,9.83
2023-03-22T04:28:17.993Z,9.86
2023-03-22T04:29:17.962Z,9.83
2023-03-22T04:30:17.954Z,9.83
2023-03-22T04:31:17.960Z,9.81
2023-03-22T04:32:17.968Z,9.83
2023-03-22T04:33:17.936Z,9.83
2023-03-22T04:34:17.920Z,9.83
2023-03-22T04:35:17.900Z,9.81
2023-03-22T04:36:17.867Z,9.83
2023-03-22T04:37:17.912Z,9.88
2023-03-22T04:38:17.861Z,9.86
2023-03-22T04:39:17.882Z,9.86
2023-03-22T04:40:17.854Z,9.86
2023-03-22T04:41:17.852Z,9.86
2023-03-22T04:42:17.812Z,9.86
2023-03-22T04:43:17.790Z,9.85
2023-03-22T04:44:17.788Z,9.88
2023-03-22T04:45:17.788Z,9.85
2023-03-22T04:46:17.813Z,9.86
2023-03-22T04:47:17.746Z,9.83
2023-03-22T04:48:17.815Z,9.85
2023-03-22T04:49:17.698Z,9.85
2023-03-22T04:50:17.747Z,9.83
2023-03-22T04:51:17.675Z,9.81
2023-03-22T04:52:17.677Z,9.80
2023-03-22T04:53:17.665Z,9.80
2023-03-22T04:54:17.625Z,9.78
2023-03-22T04:55:17.654Z,9.78
2023-03-22T04:56:17.617Z,9.78
2023-03-22T04:57:17.639Z,9.77
2023-03-22T04:58:17.574Z,9.75
2023-03-22T04:59:17.567Z,9.74
2023-03-22T05:00:17.579Z,9.73
2023-03-22T05:01:17.644Z,9.73
2023-03-22T05:02:17.516Z,9.73
2023-03-22T05:03:17.544Z,9.71
2023-03-22T05:04:17.510Z,9.70
2023-03-22T05:05:17.492Z,9.70
2023-03-22T05:06:17.493Z,9.70
2023-03-22T05:07:17.469Z,9.70
2023-03-22T05:08:17.455Z,9.71
2023-03-22T05:09:17.470Z,9.73
2023-03-22T05:10:17.449Z,9.74
2023-03-22T05:11:17.414Z,9.75
2023-03-22T05:12:17.408Z,9.77
2023-03-22T05:13:17.408Z,9.77
2023-03-22T05:14:17.393Z,9.78
2023-03-22T05:15:17.403Z,9.78
2023-03-22T05:16:17.441Z,9.78
2023-03-22T05:17:17.350Z,9.78
2023-03-22T05:18:17.304Z,9.80
2023-03-22T05:19:17.358Z,9.78
2023-03-22T05:20:17.287Z,9.77
2023-03-22T05:21:17.293Z,9.77
2023-03-22T05:22:17.282Z,9.74
2023-03-22T05:23:17.252Z,9.74
2023-03-22T05:24:17.260Z,9.73
2023-03-22T05:25:17.246Z,9.73
2023-03-22T05:26:17.248Z,9.73
2023-03-22T05:27:17.241Z,9.73
2023-03-22T05:28:17.205Z,9.73
2023-03-22T05:29:17.179Z,9.74
2023-03-22T05:30:17.177Z,9.74
2023-03-22T05:31:17.163Z,9.77
2023-03-22T05:32:17.171Z,9.75
2023-03-22T05:33:17.116Z,9.78
2023-03-22T05:34:17.120Z,9.80
2023-03-22T05:35:17.259Z,9.81
2023-03-22T05:36:17.086Z,9.81
2023-03-22T05:37:17.148Z,9.86
2023-03-22T05:38:17.075Z,9.86
2023-03-22T05:39:17.076Z,9.88
2023-03-22T05:40:17.042Z,9.88
2023-03-22T05:41:17.052Z,9.89
2023-03-22T05:42:17.023Z,9.91
2023-03-22T05:43:17.026Z,9.92
2023-03-22T05:44:17.007Z,9.93
2023-03-22T05:45:16.999Z,9.95
2023-03-22T05:46:17.002Z,9.96
2023-03-22T05:47:16.995Z,9.96
2023-03-22T05:48:17.016Z,9.98
2023-03-22T05:49:16.941Z,10.01
2023-03-22T05:50:16.909Z,10.01
2023-03-22T05:51:16.921Z,10.02
2023-03-22T05:52:16.884Z,10.02
2023-03-22T05:53:16.896Z,10.06
2023-03-22T05:54:16.840Z,10.06
2023-03-22T05:55:16.846Z,10.06
2023-03-22T05:56:16.836Z,10.07
2023-03-22T05:57:16.822Z,10.07
2023-03-22T05:58:16.788Z,10.09
2023-03-22T05:59:16.814Z,10.09
2023-03-22T06:00:16.763Z,10.09
2023-03-22T06:01:16.803Z,10.10
2023-03-22T06:02:16.753Z,10.10
2023-03-22T06:03:17.069Z,10.14
2023-03-22T06:04:16.751Z,10.13
2023-03-22T06:05:16.726Z,10.16
2023-03-22T06:06:16.753Z,10.18
2023-03-22T06:07:16.703Z,10.20
2023-03-22T06:08:16.664Z,10.22
2023-03-22T06:09:17.983Z,10.24
2023-03-22T06:10:16.692Z,10.25
2023-03-22T06:11:16.624Z,10.28
2023-03-22T06:12:16.612Z,10.29
2023-03-22T06:13:16.625Z,10.31
2023-03-22T06:14:16.609Z,10.32
2023-03-22T06:15:16.589Z,10.32
2023-03-22T06:16:16.660Z,10.34
2023-03-22T06:17:16.540Z,10.36
2023-03-22T06:18:16.558Z,10.36
2023-03-22T06:19:16.537Z,10.36
2023-03-22T06:20:16.539Z,10.36
2023-03-22T06:21:16.514Z,10.38
2023-03-22T06:22:16.508Z,10.38
2023-03-22T06:23:16.489Z,10.39
2023-03-22T06:24:16.524Z,10.42
2023-03-22T06:25:16.461Z,10.42
2023-03-22T06:26:16.452Z,10.43
2023-03-22T06:27:16.455Z,10.43
2023-03-22T06:28:16.419Z,10.43
2023-03-22T06:29:16.380Z,10.44
2023-03-22T06:30:16.402Z,10.44
2023-03-22T06:31:16.461Z,10.47
2023-03-22T06:32:16.938Z,10.47
2023-03-22T06:33:16.335Z,10.51
2023-03-22T06:34:16.325Z,10.52
2023-03-22T06:35:16.309Z,10.54
2023-03-22T06:36:16.299Z,10.55
2023-03-22T06:37:16.320Z,10.57
2023-03-22T06:38:16.319Z,10.60
2023-03-22T06:39:16.256Z,10.60
2023-03-22T06:40:16.265Z,10.63
2023-03-22T06:41:16.211Z,10.65
2023-03-22T06:42:17.230Z,10.68
2023-03-22T06:43:16.202Z,10.68
2023-03-22T06:44:16.219Z,10.69
2023-03-22T06:45:16.157Z,10.70
2023-03-22T06:46:16.337Z,10.73
2023-03-22T06:47:16.181Z,10.75
2023-03-22T06:48:16.204Z,10.76
2023-03-22T06:49:16.132Z,10.80
2023-03-22T06:50:16.108Z,10.83
2023-03-22T06:51:16.105Z,10.86
2023-03-22T06:52:16.112Z,10.87
2023-03-22T06:53:16.112Z,10.88
2023-03-22T06:54:16.054Z,10.91
2023-03-22T06:55:16.056Z,10.93
2023-03-22T06:56:16.021Z,10.94
2023-03-22T06:57:15.991Z,10.94
2023-03-22T06:58:16.043Z,10.98
2023-03-22T06:59:15.991Z,10.99
2023-03-22T07:00:15.977Z,11.01
2023-03-22T07:01:15.986Z,11.01
2023-03-22T07:02:15.942Z,11.02
2023-03-22T07:03:15.942Z,11.02
2023-03-22T07:04:16.009Z,11.03
2023-03-22T07:05:15.894Z,11.03
2023-03-22T07:06:15.913Z,11.03
2023-03-22T07:07:15.870Z,11.03
2023-03-22T07:08:15.993Z,11.02
2023-03-22T07:09:15.872Z,11.03
2023-03-22T07:10:15.848Z,11.01
2023-03-22T07:11:15.844Z,11.01
2023-03-22T07:12:15.814Z,11.01
2023-03-22T07:13:15.837Z,10.99
2023-03-22T07:14:15.784Z,11.01
2023-03-22T07:15:15.794Z,11.03
2023-03-22T07:16:17.089Z,11.03
2023-03-22T07:17:15.737Z,11.05
2023-03-22T07:18:15.754Z,11.05
2023-03-22T07:19:15.799Z,11.08
2023-03-22T07:20:15.714Z,11.11
2023-03-22T07:21:15.711Z,11.12
2023-03-22T07:22:15.707Z,11.17
2023-03-22T07:23:15.671Z,11.20
2023-03-22T07:24:15.690Z,11.24
2023-03-22T07:25:15.669Z,11.28
2023-03-22T07:26:15.664Z,11.33
2023-03-22T07:27:23.218Z,11.39
2023-03-22T07:28:17.405Z,11.46
2023-03-22T07:29:15.578Z,11.54
2023-03-22T07:30:15.621Z,11.62
2023-03-22T07:31:15.583Z,11.66
2023-03-22T07:32:15.638Z,11.69
2023-03-22T07:33:15.565Z,11.74
2023-03-22T07:34:15.558Z,11.77
2023-03-22T07:35:15.526Z,11.79
2023-03-22T07:36:15.505Z,11.84
2023-03-22T07:37:15.479Z,11.88
2023-03-22T07:38:15.549Z,11.98
2023-03-22T07:39:15.488Z,12.05
2023-03-22T07:40:15.675Z,12.15
2023-03-22T07:41:15.451Z,12.25
2023-03-22T07:42:15.409Z,12.33
2023-03-22T07:43:15.418Z,12.36
2023-03-22T07:44:18.215Z,12.38
2023-03-22T07:45:15.496Z,12.41
2023-03-22T07:46:15.426Z,12.40
2023-03-22T07:47:15.337Z,12.40
2023-03-22T07:48:15.434Z,12.43
2023-03-22T07:49:15.351Z,12.44
2023-03-22T07:50:15.348Z,12.43
2023-03-22T07:51:15.311Z,12.40
2023-03-22T07:52:15.339Z,12.40
2023-03-22T07:53:15.293Z,12.37
2023-03-22T07:54:30.522Z,12.36
2023-03-22T07:55:16.280Z,12.33
2023-03-22T07:56:15.275Z,12.30
2023-03-22T07:57:15.244Z,12.26
2023-03-22T07:58:15.245Z,12.25
2023-03-22T07:59:15.262Z,12.19
2023-03-22T08:00:15.451Z,12.15
2023-03-22T08:01:15.200Z,12.12
2023-03-22T08:02:15.210Z,12.11
2023-03-22T08:03:15.220Z,12.11
2023-03-22T08:04:15.191Z,12.13
2023-03-22T08:05:15.157Z,12.12
2023-03-22T08:06:15.160Z,12.15
2023-03-22T08:07:15.117Z,12.16
2023-03-22T08:08:15.130Z,12.21
2023-03-22T08:09:15.132Z,12.23
2023-03-22T08:10:15.071Z,12.30
2023-03-22T08:11:15.028Z,12.37
2023-03-22T08:12:15.039Z,12.44
2023-03-22T08:13:15.059Z,12.51
2023-03-22T08:14:15.960Z,12.55
2023-03-22T08:15:14.976Z,12.56
2023-03-22T08:16:15.072Z,12.56
2023-03-22T08:17:14.975Z,12.56
2023-03-22T08:18:15.097Z,12.61
2023-03-22T08:19:14.919Z,12.69
2023-03-22T08:20:14.953Z,12.69
2023-03-22T08:21:14.956Z,12.73
2023-03-22T08:22:14.929Z,12.77
2023-03-22T08:23:14.944Z,12.80
2023-03-22T08:24:14.870Z,12.85
2023-03-22T08:25:14.881Z,12.87
2023-03-22T08:26:14.848Z,12.89
2023-03-22T08:27:14.851Z,12.94
2023-03-22T08:28:14.891Z,12.96
2023-03-22T08:29:14.821Z,12.96
2023-03-22T08:30:14.834Z,12.99
2023-03-22T08:31:15.389Z,13.03
2023-03-22T08:32:14.819Z,13.01
2023-03-22T08:33:14.805Z,13.06
2023-03-22T08:34:14.753Z,13.06
2023-03-22T08:35:14.722Z,13.07
2023-03-22T08:36:14.735Z,13.07
2023-03-22T08:37:14.748Z,13.03
2023-03-22T08:38:14.695Z,13.07
2023-03-22T08:39:14.697Z,13.13
2023-03-22T08:40:14.793Z,13.21
2023-03-22T08:41:14.642Z,13.27
2023-03-22T08:42:14.643Z,13.36
2023-03-22T08:43:14.634Z,13.46
2023-03-22T08:44:14.632Z,13.55
2023-03-22T08:45:14.603Z,13.63
2023-03-22T08:46:14.675Z,13.63
2023-03-22T08:47:14.621Z,13.68
2023-03-22T08:48:14.629Z,13.66
2023-03-22T08:49:14.551Z,13.69
2023-03-22T08:50:14.566Z,13.69
2023-03-22T08:51:14.536Z,13.63
2023-03-22T08:52:14.562Z,13.62
2023-03-22T08:53:14.518Z,13.57
2023-03-22T08:54:14.525Z,13.54
2023-03-22T08:55:14.454Z,13.54
2023-03-22T08:56:14.494Z,13.55
2023-03-22T08:57:14.439Z,13.59
2023-03-22T08:58:14.428Z,13.63
2023-03-22T08:59:14.456Z,13.69
2023-03-22T09:00:14.446Z,13.73
2023-03-22T09:01:14.432Z,13.79
2023-03-22T09:02:14.518Z,13.83
2023-03-22T09:03:14.418Z,13.81
2023-03-22T09:04:14.430Z,13.73
2023-03-22T09:05:14.368Z,13.72
2023-03-22T09:06:14.365Z,13.68
2023-03-22T09:07:14.319Z,13.62
2023-03-22T09:08:19.162Z,13.57
2023-03-22T09:09:15.275Z,13.48
2023-03-22T09:10:14.316Z,13.44
2023-03-22T09:11:15.641Z,13.41
2023-03-22T09:12:14.361Z,13.43
2023-03-22T09:13:14.262Z,13.43
2023-03-22T09:14:14.245Z,13.47
2023-03-22T09:15:14.246Z,13.51
2023-03-22T09:16:14.256Z,13.65
2023-03-22T09:17:14.187Z,13.71
2023-03-22T09:18:14.223Z,13.76
2023-03-22T09:19:14.187Z,13.81
2023-03-22T09:20:14.166Z,13.87
2023-03-22T09:21:14.142Z,13.90
2023-03-22T09:22:14.138Z,13.90
2023-03-22T09:23:14.128Z,13.86
2023-03-22T09:24:14.090Z,13.80
2023-03-22T09:25:14.065Z,13.79
2023-03-22T09:26:14.109Z,13.79
2023-03-22T09:27:14.036Z,13.80
2023-03-22T09:28:14.108Z,13.81
2023-03-22T09:29:14.020Z,13.83
2023-03-22T09:30:14.011Z,13.90
2023-03-22T09:31:14.082Z,13.91
2023-03-22T09:32:14.010Z,13.94
2023-03-22T09:33:13.972Z,14.01
2023-03-22T09:34:13.985Z,14.04
2023-03-22T09:35:13.930Z,14.06
2023-03-22T09:36:13.973Z,14.06
2023-03-22T09:37:13.964Z,14.06
2023-03-22T09:38:13.962Z,14.04
2023-03-22T09:39:13.934Z,14.04
2023-03-22T09:40:13.901Z,14.04
2023-03-22T09:41:13.870Z,14.04
2023-03-22T09:42:13.888Z,14.02
2023-03-22T09:43:13.861Z,14.04
2023-03-22T09:44:13.857Z,14.04
2023-03-22T09:45:13.820Z,14.04
2023-03-22T09:46:13.849Z,14.05
2023-03-22T09:47:13.779Z,14.06
2023-03-22T09:48:13.868Z,14.05
2023-03-22T09:49:13.783Z,14.04
2023-03-22T09:50:13.761Z,14.04
2023-03-22T09:51:13.755Z,14.01
2023-03-22T09:52:13.867Z,13.96
2023-03-22T09:53:13.729Z,13.93
2023-03-22T09:54:13.704Z,13.91
2023-03-22T09:55:13.735Z,13.91
2023-03-22T09:56:13.688Z,13.88
2023-03-22T09:57:13.686Z,13.86
2023-03-22T09:58:13.741Z,13.81
2023-03-22T09:59:13.621Z,13.79
2023-03-22T10:00:13.608Z,13.76
2023-03-22T10:01:13.750Z,13.75
2023-03-22T10:02:13.674Z,13.69
2023-03-22T10:03:13.566Z,13.65
2023-03-22T10:04:13.644Z,13.63
2023-03-22T10:05:13.531Z,13.62
2023-03-22T10:06:13.574Z,13.59
2023-03-22T10:07:13.549Z,13.55
2023-03-22T10:08:13.535Z,13.51
2023-03-22T10:09:13.487Z,13.53
2023-03-22T10:10:13.512Z,13.51
2023-03-22T10:11:13.477Z,13.48
2023-03-22T10:12:13.500Z,13.50
2023-03-22T10:13:13.464Z,13.53
2023-03-22T10:14:13.436Z,13.55
2023-03-22T10:15:13.396Z,13.57
2023-03-22T10:16:13.540Z,13.57
2023-03-22T10:17:13.391Z,13.55
2023-03-22T10:18:13.382Z,13.59
2023-03-22T10:19:13.404Z,13.57
2023-03-22T10:20:13.341Z,13.55
2023-03-22T10:21:13.377Z,13.57
2023-03-22T10:22:13.357Z,13.59
2023-03-22T10:23:13.305Z,13.59
2023-03-22T10:24:13.315Z,13.59
2023-03-22T10:25:13.276Z,13.55
2023-03-22T10:26:13.285Z,13.54
2023-03-22T10:27:13.923Z,13.48
2023-03-22T10:28:13.224Z,13.47
2023-03-22T10:29:13.303Z,13.46
2023-03-22T10:30:13.205Z,13.48
2023-03-22T10:31:13.271Z,13.51
2023-03-22T10:32:13.214Z,13.55
2023-03-22T10:33:13.173Z,13.61
2023-03-22T10:34:13.185Z,13.62
2023-03-22T10:35:13.213Z,13.62
2023-03-22T10:36:13.155Z,13.66
2023-03-22T10:37:13.125Z,13.65
2023-03-22T10:38:13.092Z,13.69
2023-03-22T10:39:14.532Z,13.69
2023-03-22T10:40:13.129Z,13.72
2023-03-22T10:41:13.073Z,13.73
2023-03-22T10:42:13.080Z,13.73
2023-03-22T10:43:13.088Z,13.72
2023-03-22T10:44:13.013Z,13.75
2023-03-22T10:45:13.079Z,13.73
2023-03-22T10:46:13.009Z,13.72
2023-03-22T10:47:12.992Z,13.76
2023-03-22T10:48:13.094Z,13.81
2023-03-22T10:49:12.970Z,13.81
2023-03-22T10:50:12.969Z,13.81
2023-03-22T10:51:12.954Z,13.80
2023-03-22T10:52:12.935Z,13.81
2023-03-22T10:53:12.905Z,13.84
2023-03-22T10:54:12.913Z,13.84
2023-03-22T10:55:12.913Z,13.87
2023-03-22T10:56:12.900Z,13.87
2023-03-22T10:57:12.873Z,13.88
2023-03-22T10:58:12.845Z,13.88
2023-03-22T10:59:12.824Z,13.88
2023-03-22T11:00:12.855Z,13.88
2023-03-22T11:01:13.116Z,13.87
2023-03-22T11:02:12.922Z,13.88
2023-03-22T11:03:12.853Z,13.88
2023-03-22T11:04:12.789Z,13.90
2023-03-22T11:05:12.779Z,13.93
2023-03-22T11:06:12.786Z,13.94
2023-03-22T11:07:12.754Z,13.91
2023-03-22T11:08:12.727Z,13.90
2023-03-22T11:09:12.764Z,13.88
2023-03-22T11:10:12.796Z,13.88
2023-03-22T11:11:12.683Z,13.88
2023-03-22T11:12:12.643Z,13.88
2023-03-22T11:13:12.646Z,13.88
2023-03-22T11:14:12.662Z,13.88
2023-03-22T11:15:12.678Z,13.87
2023-03-22T11:16:12.740Z,13.84
2023-03-22T11:17:12.653Z,13.83
2023-03-22T11:18:12.578Z,13.80
2023-03-22T11:19:12.600Z,13.80
2023-03-22T11:20:12.595Z,13.76
2023-03-22T11:21:12.547Z,13.76
2023-03-22T11:22:12.579Z,13.76
2023-03-22T11:23:12.522Z,13.75
2023-03-22T11:24:12.568Z,13.76
2023-03-22T11:25:12.525Z,13.79
2023-03-22T11:26:12.470Z,13.81
2023-03-22T11:27:12.490Z,13.83
2023-03-22T11:28:12.457Z,13.86
2023-03-22T11:29:12.441Z,13.88
2023-03-22T11:30:12.435Z,13.87
2023-03-22T11:31:12.411Z,13.88
2023-03-22T11:32:12.434Z,13.84
2023-03-22T11:33:12.471Z,13.80
2023-03-22T11:34:12.435Z,13.79
2023-03-22T11:35:12.384Z,13.76
2023-03-22T11:36:12.375Z,13.73
2023-03-22T11:37:13.381Z,13.72
2023-03-22T11:38:12.301Z,13.73
2023-03-22T11:39:12.329Z,13.73
2023-03-22T11:40:12.317Z,13.75
2023-03-22T11:41:12.326Z,13.75
2023-03-22T11:42:12.276Z,13.75
2023-03-22T11:43:12.260Z,13.76
2023-03-22T11:44:12.266Z,13.79
2023-03-22T11:45:12.259Z,13.76
2023-03-22T11:46:12.437Z,13.76
2023-03-22T11:47:12.234Z,13.71
2023-03-22T11:48:12.355Z,13.68
2023-03-22T11:49:12.250Z,13.66
2023-03-22T11:50:12.205Z,13.62
2023-03-22T11:51:12.459Z,13.59
2023-03-22T11:52:12.257Z,13.55
2023-03-22T11:53:12.119Z,13.55
2023-03-22T11:54:12.116Z,13.53
2023-03-22T11:55:12.117Z,13.51
2023-03-22T11:56:12.128Z,13.50
2023-03-22T11:57:12.076Z,13.48
2023-03-22T11:58:12.093Z,13.51
2023-03-22T11:59:12.069Z,13.51
2023-03-22T12:00:12.058Z,13.53
2023-03-22T12:01:12.045Z,13.51
2023-03-22T12:02:12.038Z,13.53
2023-03-22T12:03:12.105Z,13.55
2023-03-22T12:04:12.055Z,13.57
2023-03-22T12:05:12.125Z,13.59
2023-03-22T12:06:12.034Z,13.61
2023-03-22T12:07:11.976Z,13.61
2023-03-22T12:08:19.481Z,13.59
2023-03-22T12:09:19.012Z,13.63
2023-03-22T12:10:11.910Z,13.62
2023-03-22T12:11:11.927Z,13.63
2023-03-22T12:12:11.933Z,13.63
2023-03-22T12:13:11.859Z,13.66
2023-03-22T12:14:11.829Z,13.65
2023-03-22T12:15:11.832Z,13.65
2023-03-22T12:16:11.922Z,13.66
2023-03-22T12:17:11.858Z,13.68
2023-03-22T12:18:11.825Z,13.68
2023-03-22T12:19:11.779Z,13.68
2023-03-22T12:20:11.845Z,13.69
2023-03-22T12:21:11.764Z,13.66
2023-03-22T12:22:11.776Z,13.63
2023-03-22T12:23:11.727Z,13.62
2023-03-22T12:24:11.700Z,13.63
2023-03-22T12:25:11.708Z,13.61
2023-03-22T12:26:11.731Z,13.57
2023-03-22T12:27:11.714Z,13.55
2023-03-22T12:28:11.676Z,13.51
2023-03-22T12:29:11.670Z,13.51
2023-03-22T12:30:11.657Z,13.51
2023-03-22T12:31:11.696Z,13.48
2023-03-22T12:32:11.610Z,13.48
2023-03-22T12:33:11.694Z,13.48
2023-03-22T12:34:11.570Z,13.47
2023-03-22T12:35:34.723Z,13.47
2023-03-22T12:36:12.612Z,13.46
2023-03-22T12:37:11.549Z,13.44
2023-03-22T12:38:11.517Z,13.44
2023-03-22T12:39:11.561Z,13.43
2023-03-22T12:40:11.516Z,13.41
2023-03-22T12:41:11.528Z,13.41
2023-03-22T12:42:11.511Z,13.39
2023-03-22T12:43:11.505Z,13.39
2023-03-22T12:44:11.460Z,13.41
2023-03-22T12:45:11.461Z,13.41
2023-03-22T12:46:11.455Z,13.41
2023-03-22T12:47:11.428Z,13.39
2023-03-22T12:48:11.519Z,13.39
2023-03-22T12:49:11.448Z,13.38
2023-03-22T12:50:11.382Z,13.36
2023-03-22T12:51:11.389Z,13.35
2023-03-22T12:52:11.370Z,13.38
2023-03-22T12:53:11.346Z,13.39
2023-03-22T12:54:11.424Z,13.41
2023-03-22T12:55:11.318Z,13.44
2023-03-22T12:56:11.332Z,13.43
2023-03-22T12:57:11.333Z,13.44